createdAt,value
2019-04-03T00:00:46.109Z,0.00
2019-04-03T00:01:46.136Z,0.00
2019-04-03T00:02:46.118Z,0.00
2019-04-03T00:03:46.064Z,0.00
2019-04-03T00:04:46.099Z,0.00
2019-04-03T00:05:46.114Z,0.00
2019-04-03T00:06:46.145Z,0.00
2019-04-03T00:07:46.037Z,0.00
2019-04-03T00:08:46.793Z,0.00
2019-04-03T00:09:46.009Z,0.00
2019-04-03T00:10:46.003Z,0.00
2019-04-03T00:11:46.038Z,0.00
2019-04-03T00:12:46.078Z,0.00
2019-04-03T00:13:46.132Z,0.00
2019-04-03T00:14:46.234Z,0.00
2019-04-03T00:15:46.002Z,0.00
2019-04-03T00:16:46.127Z,0.00
2019-04-03T00:17:46.310Z,0.00
2019-04-03T00:18:47.588Z,0.00
2019-04-03T00:19:47.724Z,0.00
2019-04-03T00:20:48.259Z,0.00
2019-04-03T00:21:46.005Z,0.00
2019-04-03T00:22:46.700Z,0.00
2019-04-03T00:23:46.902Z,0.00
2019-04-03T00:24:45.894Z,0.00
2019-04-03T00:25:45.961Z,0.00
2019-04-03T00:26:45.912Z,0.00
2019-04-03T00:27:45.937Z,0.00
2019-04-03T00:28:45.889Z,0.00
2019-04-03T00:29:45.905Z,0.00
2019-04-03T00:30:45.916Z,0.00
2019-04-03T00:31:45.899Z,0.00
2019-04-03T00:32:45.869Z,0.00
2019-04-03T00:33:45.859Z,0.00
2019-04-03T00:34:45.925Z,0.00
2019-04-03T00:35:45.986Z,0.00
2019-04-03T00:36:45.897Z,0.00
2019-04-03T00:37:45.856Z,0.00
2019-04-03T00:38:45.833Z,0.00
2019-04-03T00:39:45.841Z,0.00
2019-04-03T00:40:45.873Z,0.00
2019-04-03T00:41:45.910Z,0.00
2019-04-03T00:42:45.858Z,0.00
2019-04-03T00:43:45.903Z,0.00
2019-04-03T00:44:46.041Z,0.00
2019-04-03T00:45:45.985Z,0.00
2019-04-03T00:46:45.960Z,0.00
2019-04-03T00:47:45.870Z,0.00
2019-04-03T00:48:45.809Z,0.00
2019-04-03T00:49:45.907Z,0.00
2019-04-03T00:50:45.793Z,0.00
2019-04-03T00:51:45.842Z,0.00
2019-04-03T00:52:45.989Z,0.00
2019-04-03T00:53:45.962Z,0.00
2019-04-03T00:54:45.790Z,0.00
2019-04-03T00:55:45.761Z,0.00
2019-04-03T00:56:45.833Z,0.00
2019-04-03T00:57:46.301Z,0.00
2019-04-03T00:58:45.751Z,0.00
2019-04-03T00:59:45.714Z,0.00
2019-04-03T01:00:45.733Z,0.00
2019-04-03T01:01:46.034Z,0.00
2019-04-03T01:02:46.300Z,0.00
2019-04-03T01:03:45.869Z,0.00
2019-04-03T01:04:45.774Z,0.00
2019-04-03T01:05:45.689Z,0.00
2019-04-03T01:06:45.886Z,0.00
2019-04-03T01:07:45.710Z,0.00
2019-04-03T01:08:45.802Z,0.00
2019-04-03T01:09:45.680Z,0.00
2019-04-03T01:10:45.654Z,0.00
2019-04-03T01:11:45.670Z,0.00
2019-04-03T01:12:45.692Z,0.00
2019-04-03T01:13:45.677Z,0.00
2019-04-03T01:14:45.612Z,0.00
2019-04-03T01:15:45.638Z,0.00
2019-04-03T01:16:45.933Z,0.00
2019-04-03T01:17:45.633Z,0.00
2019-04-03T01:18:45.668Z,0.00
2019-04-03T01:19:45.619Z,0.00
2019-04-03T01:20:45.557Z,0.00
2019-04-03T01:21:45.539Z,0.00
2019-04-03T01:22:45.554Z,0.00
2019-04-03T01:23:45.728Z,0.00
2019-04-03T01:24:45.632Z,0.00
2019-04-03T01:25:45.579Z,0.00
2019-04-03T01:26:45.602Z,0.00
2019-04-03T01:27:45.571Z,0.00
2019-04-03T01:28:45.533Z,0.00
2019-04-03T01:29:45.507Z,0.00
2019-04-03T01:30:45.619Z,0.00
2019-04-03T01:31:45.644Z,0.00
2019-04-03T01:32:46.628Z,0.00
2019-04-03T01:33:46.870Z,0.00
2019-04-03T01:34:47.645Z,0.00
2019-04-03T01:35:47.465Z,0.00
2019-04-03T01:36:46.541Z,0.00
2019-04-03T01:37:45.629Z,0.00
2019-04-03T01:38:45.543Z,0.00
2019-04-03T01:39:45.591Z,0.00
2019-04-03T01:40:46.313Z,0.00
2019-04-03T01:41:45.406Z,0.00
2019-04-03T01:42:45.429Z,0.00
2019-04-03T01:43:45.487Z,0.00
2019-04-03T01:44:45.397Z,0.00
2019-04-03T01:45:45.393Z,0.00
2019-04-03T01:46:45.435Z,0.00
2019-04-03T01:47:45.425Z,0.00
2019-04-03T01:48:45.372Z,0.00
2019-04-03T01:49:45.352Z,0.00
2019-04-03T01:50:45.348Z,0.00
2019-04-03T01:51:45.357Z,0.00
2019-04-03T01:52:45.330Z,0.00
2019-04-03T01:53:45.379Z,0.00
2019-04-03T01:54:45.453Z,0.00
2019-04-03T01:55:46.152Z,0.00
2019-04-03T01:56:45.299Z,0.00
2019-04-03T01:57:45.288Z,0.00
2019-04-03T01:58:45.284Z,0.00
2019-04-03T01:59:45.366Z,0.00
2019-04-03T02:00:45.399Z,0.00
2019-04-03T02:01:45.813Z,0.00
2019-04-03T02:02:45.366Z,0.00
2019-04-03T02:03:45.398Z,0.00
2019-04-03T02:04:45.265Z,0.00
2019-04-03T02:05:45.244Z,0.00
2019-04-03T02:06:45.374Z,0.00
2019-04-03T02:07:45.347Z,0.00
2019-04-03T02:08:45.533Z,0.00
2019-04-03T02:09:46.549Z,0.00
2019-04-03T02:10:48.253Z,0.00
2019-04-03T02:11:45.579Z,0.00
2019-04-03T02:12:45.245Z,0.00
2019-04-03T02:13:45.168Z,0.00
2019-04-03T02:14:45.318Z,0.00
2019-04-03T02:15:45.211Z,0.00
2019-04-03T02:16:46.257Z,0.00
2019-04-03T02:17:45.503Z,0.00
2019-04-03T02:18:45.196Z,0.00
2019-04-03T02:19:45.171Z,0.00
2019-04-03T02:20:45.137Z,0.00
2019-04-03T02:21:45.103Z,0.00
2019-04-03T02:22:45.162Z,0.00
2019-04-03T02:23:45.106Z,0.00
2019-04-03T02:24:45.154Z,0.00
2019-04-03T02:25:45.097Z,0.00
2019-04-03T02:26:45.129Z,0.00
2019-04-03T02:27:45.107Z,0.00
2019-04-03T02:28:45.174Z,0.00
2019-04-03T02:29:45.090Z,0.00
2019-04-03T02:30:46.642Z,0.00
2019-04-03T02:31:46.048Z,0.00
2019-04-03T02:32:45.071Z,0.00
2019-04-03T02:33:45.063Z,0.00
2019-04-03T02:34:45.257Z,0.00
2019-04-03T02:35:45.077Z,0.00
2019-04-03T02:36:45.639Z,0.00
2019-04-03T02:37:48.754Z,0.00
2019-04-03T02:38:46.032Z,0.00
2019-04-03T02:39:45.053Z,0.00
2019-04-03T02:40:44.988Z,0.00
2019-04-03T02:41:45.213Z,0.00
2019-04-03T02:42:45.826Z,0.00
2019-04-03T02:43:46.274Z,0.00
2019-04-03T02:44:48.400Z,0.00
2019-04-03T02:45:45.040Z,0.00
2019-04-03T02:46:45.622Z,0.00
2019-04-03T02:47:44.975Z,0.00
2019-04-03T02:48:44.988Z,0.00
2019-04-03T02:49:45.102Z,0.00
2019-04-03T02:50:47.552Z,0.00
2019-04-03T02:51:44.946Z,0.00
2019-04-03T02:52:45.826Z,0.00
2019-04-03T02:53:45.012Z,0.00
2019-04-03T02:54:44.957Z,0.00
2019-04-03T02:55:45.259Z,0.00
2019-04-03T02:56:45.983Z,0.00
2019-04-03T02:57:48.432Z,0.00
2019-04-03T02:58:45.905Z,0.00
2019-04-03T02:59:44.876Z,0.00
2019-04-03T03:00:44.866Z,0.00
2019-04-03T03:01:44.901Z,0.00
2019-04-03T03:02:45.760Z,0.00
2019-04-03T03:03:48.511Z,0.00
2019-04-03T03:04:44.869Z,0.00
2019-04-03T03:05:44.829Z,0.00
2019-04-03T03:06:44.873Z,0.00
2019-04-03T03:07:44.819Z,0.00
2019-04-03T03:08:44.823Z,0.00
2019-04-03T03:09:47.144Z,0.00
2019-04-03T03:10:45.926Z,0.00
2019-04-03T03:11:45.213Z,0.00
2019-04-03T03:12:44.789Z,0.00
2019-04-03T03:13:44.780Z,0.00
2019-04-03T03:14:44.824Z,0.00
2019-04-03T03:15:45.392Z,0.00
2019-04-03T03:16:49.231Z,0.00
2019-04-03T03:17:44.772Z,0.00
2019-04-03T03:18:45.833Z,0.00
2019-04-03T03:19:44.883Z,0.00
2019-04-03T03:20:45.078Z,0.00
2019-04-03T03:21:45.512Z,0.00
2019-04-03T03:22:44.735Z,0.00
2019-04-03T03:23:44.706Z,0.00
2019-04-03T03:24:45.046Z,0.00
2019-04-03T03:25:44.742Z,0.00
2019-04-03T03:26:44.770Z,0.00
2019-04-03T03:27:44.664Z,0.00
2019-04-03T03:28:46.875Z,0.00
2019-04-03T03:29:45.674Z,0.00
2019-04-03T03:30:54.535Z,0.00
2019-04-03T03:32:06.369Z,0.00
2019-04-03T03:32:46.911Z,0.00
2019-04-03T03:33:45.137Z,0.00
2019-04-03T03:34:52.878Z,0.00
2019-04-03T03:35:48.767Z,0.00
2019-04-03T03:36:45.957Z,0.00
2019-04-03T03:37:44.612Z,0.00
2019-04-03T03:38:44.756Z,0.00
2019-04-03T03:39:45.876Z,0.00
2019-04-03T03:40:47.267Z,0.00
2019-04-03T03:41:45.652Z,0.00
2019-04-03T03:42:44.849Z,0.00
2019-04-03T03:43:45.238Z,0.00
2019-04-03T03:44:46.100Z,0.00
2019-04-03T03:45:45.745Z,0.00
2019-04-03T03:46:44.578Z,0.00
2019-04-03T03:47:44.545Z,0.00
2019-04-03T03:48:45.547Z,0.00
2019-04-03T03:49:48.598Z,0.00
2019-04-03T03:50:44.558Z,0.00
2019-04-03T03:51:44.728Z,0.00
2019-04-03T03:52:44.511Z,0.00
2019-04-03T03:53:45.967Z,0.00
2019-04-03T03:54:49.934Z,0.00
2019-04-03T03:55:45.581Z,0.00
2019-04-03T03:56:44.792Z,0.00
2019-04-03T03:57:44.474Z,0.00
2019-04-03T03:58:45.714Z,0.00
2019-04-03T03:59:49.468Z,0.00
2019-04-03T04:00:51.100Z,0.00
2019-04-03T04:01:45.458Z,0.00
2019-04-03T04:02:45.222Z,0.00
2019-04-03T04:03:45.819Z,0.00
2019-04-03T04:04:47.607Z,0.00
2019-04-03T04:05:45.476Z,0.00
2019-04-03T04:06:44.448Z,0.00
2019-04-03T04:07:44.503Z,0.00
2019-04-03T04:08:45.403Z,0.00
2019-04-03T04:09:50.038Z,0.00
2019-04-03T04:10:45.930Z,0.00
2019-04-03T04:11:44.447Z,0.00
2019-04-03T04:12:44.385Z,0.00
2019-04-03T04:13:47.537Z,0.00
2019-04-03T04:14:45.490Z,0.00
2019-04-03T04:15:44.879Z,0.00
2019-04-03T04:16:44.434Z,0.00
2019-04-03T04:17:48.963Z,0.00
2019-04-03T04:18:45.448Z,0.00
2019-04-03T04:19:44.341Z,0.00
2019-04-03T04:20:44.451Z,0.00
2019-04-03T04:21:45.175Z,0.00
2019-04-03T04:22:49.026Z,0.00
2019-04-03T04:23:44.394Z,0.00
2019-04-03T04:24:44.284Z,0.00
2019-04-03T04:25:44.654Z,0.00
2019-04-03T04:26:44.301Z,0.00
2019-04-03T04:27:44.391Z,0.00
2019-04-03T04:28:44.281Z,0.00
2019-04-03T04:29:44.264Z,0.00
2019-04-03T04:30:44.263Z,4.00
2019-04-03T04:31:44.494Z,4.00
2019-04-03T04:32:46.515Z,0.00
2019-04-03T04:33:45.756Z,4.00
2019-04-03T04:34:44.221Z,4.00
2019-04-03T04:35:44.224Z,4.00
2019-04-03T04:36:44.217Z,4.00
2019-04-03T04:37:44.330Z,8.00
2019-04-03T04:38:44.200Z,4.00
2019-04-03T04:39:44.323Z,8.00
2019-04-03T04:40:44.973Z,8.00
2019-04-03T04:41:44.945Z,8.00
2019-04-03T04:42:44.253Z,12.00
2019-04-03T04:43:44.250Z,12.00
2019-04-03T04:44:44.144Z,12.00
2019-04-03T04:45:44.335Z,16.00
2019-04-03T04:46:44.738Z,16.00
2019-04-03T04:47:46.461Z,16.00
2019-04-03T04:48:45.336Z,20.00
2019-04-03T04:49:44.266Z,24.00
2019-04-03T04:50:44.104Z,24.00
2019-04-03T04:51:44.116Z,24.00
2019-04-03T04:52:44.494Z,28.00
2019-04-03T04:53:44.130Z,32.00
2019-04-03T04:54:44.148Z,36.00
2019-04-03T04:55:44.298Z,40.00
2019-04-03T04:56:44.079Z,44.00
2019-04-03T04:57:44.234Z,48.00
2019-04-03T04:58:44.117Z,52.00
2019-04-03T04:59:45.238Z,60.00
2019-04-03T05:00:47.554Z,64.00
2019-04-03T05:01:44.195Z,72.00
2019-04-03T05:02:44.045Z,80.00
2019-04-03T05:03:44.151Z,84.00
2019-04-03T05:04:44.062Z,92.00
2019-04-03T05:05:44.042Z,104.00
2019-04-03T05:06:43.988Z,108.00
2019-04-03T05:07:44.017Z,116.00
2019-04-03T05:08:44.014Z,120.00
2019-04-03T05:09:43.988Z,128.00
2019-04-03T05:10:43.984Z,136.00
2019-04-03T05:11:43.983Z,144.00
2019-04-03T05:12:45.556Z,148.00
2019-04-03T05:13:46.805Z,152.00
2019-04-03T05:14:43.990Z,160.00
2019-04-03T05:15:44.063Z,172.00
2019-04-03T05:16:43.953Z,180.00
2019-04-03T05:17:43.951Z,184.00
2019-04-03T05:18:43.948Z,188.00
2019-04-03T05:19:43.989Z,196.00
2019-04-03T05:20:43.964Z,200.00
2019-04-03T05:21:43.907Z,204.00
2019-04-03T05:22:43.898Z,212.00
2019-04-03T05:23:43.901Z,216.00
2019-04-03T05:24:44.039Z,228.00
2019-04-03T05:25:43.890Z,240.00
2019-04-03T05:26:43.976Z,252.00
2019-04-03T05:27:43.936Z,268.00
2019-04-03T05:28:53.555Z,284.00
2019-04-03T05:29:45.930Z,296.00
2019-04-03T05:30:43.860Z,308.00
2019-04-03T05:31:43.844Z,312.00
2019-04-03T05:32:43.833Z,316.00
2019-04-03T05:33:43.984Z,312.00
2019-04-03T05:34:44.687Z,308.00
2019-04-03T05:35:45.589Z,304.00
2019-04-03T05:36:44.807Z,308.00
2019-04-03T05:37:43.811Z,312.00
2019-04-03T05:38:44.001Z,320.00
2019-04-03T05:39:43.841Z,328.00
2019-04-03T05:40:43.805Z,336.00
2019-04-03T05:41:43.812Z,356.00
2019-04-03T05:42:44.019Z,376.00
2019-04-03T05:43:43.784Z,396.00
2019-04-03T05:44:43.785Z,408.00
2019-04-03T05:45:43.765Z,416.00
2019-04-03T05:46:43.753Z,416.00
2019-04-03T05:47:43.757Z,408.00
2019-04-03T05:48:43.763Z,396.00
2019-04-03T05:49:46.464Z,388.00
2019-04-03T05:50:43.722Z,388.00
2019-04-03T05:51:43.719Z,388.00
2019-04-03T05:52:43.719Z,392.00
2019-04-03T05:53:43.705Z,404.00
2019-04-03T05:54:44.503Z,428.00
2019-04-03T05:55:44.797Z,460.00
2019-04-03T05:56:43.682Z,496.00
2019-04-03T05:57:45.771Z,528.00
2019-04-03T05:58:54.469Z,544.00
2019-04-03T05:59:57.940Z,552.00
2019-04-03T06:00:44.748Z,556.00
2019-04-03T06:01:46.604Z,556.00
2019-04-03T06:02:44.632Z,556.00
2019-04-03T06:03:45.258Z,544.00
2019-04-03T06:04:44.759Z,532.00
2019-04-03T06:05:44.018Z,536.00
2019-04-03T06:06:46.859Z,552.00
2019-04-03T06:07:43.609Z,580.00
2019-04-03T06:08:43.617Z,624.00
2019-04-03T06:09:43.621Z,680.00
2019-04-03T06:10:43.623Z,728.00
2019-04-03T06:11:43.592Z,792.00
2019-04-03T06:12:45.406Z,868.00
2019-04-03T06:13:43.585Z,940.00
2019-04-03T06:14:43.573Z,988.00
2019-04-03T06:15:43.583Z,1040.00
2019-04-03T06:16:43.561Z,1096.00
2019-04-03T06:17:43.540Z,1152.00
2019-04-03T06:18:43.542Z,1216.00
2019-04-03T06:19:43.535Z,1272.00
2019-04-03T06:20:43.997Z,1312.00
2019-04-03T06:21:45.729Z,1328.00
2019-04-03T06:22:43.535Z,1324.00
2019-04-03T06:23:43.508Z,1312.00
2019-04-03T06:24:43.498Z,1304.00
2019-04-03T06:25:43.803Z,1284.00
2019-04-03T06:26:44.652Z,1280.00
2019-04-03T06:27:46.051Z,1284.00
2019-04-03T06:28:46.646Z,1280.00
2019-04-03T06:29:44.550Z,1260.00
2019-04-03T06:30:43.695Z,1224.00
2019-04-03T06:31:43.474Z,1176.00
2019-04-03T06:32:43.466Z,1128.00
2019-04-03T06:33:43.458Z,1076.00
2019-04-03T06:34:43.811Z,1024.00
2019-04-03T06:35:45.328Z,984.00
2019-04-03T06:36:43.752Z,952.00
2019-04-03T06:37:43.433Z,928.00
2019-04-03T06:38:43.431Z,912.00
2019-04-03T06:39:43.550Z,900.00
2019-04-03T06:40:43.405Z,880.00
2019-04-03T06:41:43.502Z,872.00
2019-04-03T06:42:44.946Z,868.00
2019-04-03T06:43:44.632Z,852.00
2019-04-03T06:44:44.397Z,824.00
2019-04-03T06:45:44.359Z,784.00
2019-04-03T06:46:44.582Z,748.00
2019-04-03T06:47:43.561Z,732.00
2019-04-03T06:48:43.863Z,744.00
2019-04-03T06:49:43.627Z,764.00
2019-04-03T06:50:43.734Z,792.00
2019-04-03T06:51:43.578Z,808.00
2019-04-03T06:52:43.576Z,836.00
2019-04-03T06:53:43.558Z,880.00
2019-04-03T06:54:44.623Z,956.00
2019-04-03T06:55:44.563Z,1040.00
2019-04-03T06:56:43.539Z,1136.00
2019-04-03T06:57:43.519Z,1228.00
2019-04-03T06:58:44.748Z,1296.00
2019-04-03T06:59:44.511Z,1464.00
2019-04-03T07:00:43.517Z,1724.00
2019-04-03T07:01:43.519Z,1996.00
2019-04-03T07:02:43.504Z,2236.00
2019-04-03T07:03:43.489Z,2404.00
2019-04-03T07:04:43.484Z,2548.00
2019-04-03T07:05:43.491Z,2644.00
2019-04-03T07:06:45.198Z,2688.00
2019-04-03T07:07:43.492Z,2684.00
2019-04-03T07:08:43.745Z,2616.00
2019-04-03T07:09:43.473Z,2468.00
2019-04-03T07:10:54.582Z,2284.00
2019-04-03T07:11:45.450Z,2088.00
2019-04-03T07:12:43.469Z,1920.00
2019-04-03T07:13:43.689Z,1812.00
2019-04-03T07:14:43.443Z,1760.00
2019-04-03T07:15:43.440Z,1752.00
2019-04-03T07:16:43.455Z,1760.00
2019-04-03T07:17:43.595Z,1776.00
2019-04-03T07:18:43.420Z,1788.00
2019-04-03T07:19:43.405Z,1788.00
2019-04-03T07:20:44.087Z,1772.00
2019-04-03T07:21:43.409Z,1764.00
2019-04-03T07:22:43.385Z,1772.00
2019-04-03T07:23:43.397Z,1800.00
2019-04-03T07:24:43.381Z,1848.00
2019-04-03T07:25:43.384Z,1920.00
2019-04-03T07:26:43.374Z,2004.00
2019-04-03T07:27:43.392Z,2092.00
2019-04-03T07:28:44.078Z,2176.00
2019-04-03T07:29:43.350Z,2252.00
2019-04-03T07:30:43.356Z,2336.00
2019-04-03T07:31:43.331Z,2428.00
2019-04-03T07:32:43.545Z,2532.00
2019-04-03T07:33:43.320Z,2624.00
2019-04-03T07:34:43.399Z,2700.00
2019-04-03T07:35:44.059Z,2748.00
2019-04-03T07:36:45.518Z,2784.00
2019-04-03T07:37:43.311Z,2780.00
2019-04-03T07:38:44.067Z,2764.00
2019-04-03T07:39:44.077Z,2804.00
2019-04-03T07:40:43.295Z,2896.00
2019-04-03T07:41:44.138Z,3036.00
2019-04-03T07:42:43.344Z,3212.00
2019-04-03T07:43:43.257Z,3400.00
2019-04-03T07:44:43.238Z,3592.00
2019-04-03T07:45:44.037Z,3744.00
2019-04-03T07:46:44.222Z,3840.00
2019-04-03T07:47:43.458Z,3928.00
2019-04-03T07:48:43.510Z,4020.00
2019-04-03T07:49:43.241Z,4096.00
2019-04-03T07:50:43.220Z,4124.00
2019-04-03T07:51:44.111Z,4136.00
2019-04-03T07:52:45.828Z,4152.00
2019-04-03T07:53:43.217Z,4184.00
2019-04-03T07:54:43.205Z,4180.00
2019-04-03T07:55:44.275Z,4164.00
2019-04-03T07:56:44.322Z,4152.00
2019-04-03T07:57:43.215Z,4172.00
2019-04-03T07:58:43.360Z,4180.00
2019-04-03T07:59:43.187Z,4176.00
2019-04-03T08:00:43.192Z,4156.00
2019-04-03T08:01:43.519Z,4160.00
2019-04-03T08:02:47.646Z,4164.00
2019-04-03T08:03:45.223Z,4140.00
2019-04-03T08:04:43.161Z,4116.00
2019-04-03T08:05:43.168Z,4108.00
2019-04-03T08:06:43.147Z,4076.00
2019-04-03T08:07:43.128Z,4064.00
2019-04-03T08:08:43.138Z,4068.00
2019-04-03T08:09:44.409Z,4084.00
2019-04-03T08:10:43.175Z,4144.00
2019-04-03T08:11:43.250Z,4284.00
2019-04-03T08:12:43.091Z,4444.00
2019-04-03T08:13:43.108Z,4528.00
2019-04-03T08:14:43.070Z,4568.00
2019-04-03T08:15:44.427Z,4576.00
2019-04-03T08:16:43.378Z,4488.00
2019-04-03T08:17:43.368Z,4312.00
2019-04-03T08:18:43.080Z,4172.00
2019-04-03T08:19:45.035Z,4100.00
2019-04-03T08:20:44.574Z,4024.00
2019-04-03T08:21:43.273Z,4008.00
2019-04-03T08:22:43.051Z,4012.00
2019-04-03T08:23:43.065Z,4080.00
2019-04-03T08:24:43.058Z,4144.00
2019-04-03T08:25:47.233Z,4212.00
2019-04-03T08:26:44.034Z,4280.00
2019-04-03T08:27:43.040Z,4288.00
2019-04-03T08:28:43.042Z,4168.00
2019-04-03T08:29:43.344Z,4068.00
2019-04-03T08:30:42.986Z,3960.00
2019-04-03T08:31:46.052Z,3920.00
2019-04-03T08:32:44.028Z,3840.00
2019-04-03T08:33:42.967Z,3784.00
2019-04-03T08:34:43.114Z,3708.00
2019-04-03T08:35:43.118Z,3748.00
2019-04-03T08:36:42.783Z,3924.00
2019-04-03T08:37:42.772Z,4088.00
2019-04-03T08:38:44.858Z,4308.00
2019-04-03T08:39:44.023Z,4508.00
2019-04-03T08:40:42.754Z,4604.00
2019-04-03T08:41:43.106Z,4560.00
2019-04-03T08:42:43.090Z,4484.00
2019-04-03T08:43:42.727Z,4356.00
2019-04-03T08:44:42.758Z,4244.00
2019-04-03T08:45:42.733Z,4188.00
2019-04-03T08:46:43.829Z,4152.00
2019-04-03T08:47:45.923Z,4176.00
2019-04-03T08:48:42.996Z,4248.00
2019-04-03T08:49:42.712Z,4324.00
2019-04-03T08:50:42.724Z,4408.00
2019-04-03T08:51:42.691Z,4468.00
2019-04-03T08:52:42.678Z,4444.00
2019-04-03T08:53:42.674Z,4348.00
2019-04-03T08:54:42.734Z,4304.00
2019-04-03T08:55:45.360Z,4260.00
2019-04-03T08:56:42.654Z,4196.00
2019-04-03T08:57:45.650Z,4140.00
2019-04-03T08:58:44.729Z,4036.00
2019-04-03T08:59:42.844Z,3888.00
2019-04-03T09:00:42.612Z,3756.00
2019-04-03T09:01:42.629Z,3688.00
2019-04-03T09:02:43.883Z,3676.00
2019-04-03T09:03:45.331Z,3720.00
2019-04-03T09:04:43.588Z,3816.00
2019-04-03T09:05:43.585Z,3928.00
2019-04-03T09:06:42.573Z,4052.00
2019-04-03T09:07:42.585Z,4172.00
2019-04-03T09:08:42.586Z,4280.00
2019-04-03T09:09:42.839Z,4380.00
2019-04-03T09:10:42.635Z,4516.00
2019-04-03T09:11:42.559Z,4644.00
2019-04-03T09:12:42.558Z,4732.00
2019-04-03T09:13:42.551Z,4828.00
2019-04-03T09:14:42.564Z,4852.00
2019-04-03T09:15:42.526Z,4852.00
2019-04-03T09:16:42.526Z,4900.00
2019-04-03T09:17:42.546Z,4960.00
2019-04-03T09:18:42.504Z,4976.00
2019-04-03T09:19:42.783Z,4908.00
2019-04-03T09:20:43.390Z,4780.00
2019-04-03T09:21:44.951Z,4636.00
2019-04-03T09:22:43.593Z,4616.00
2019-04-03T09:23:42.465Z,4720.00
2019-04-03T09:24:42.460Z,4868.00
2019-04-03T09:25:42.851Z,4944.00
2019-04-03T09:26:42.447Z,5004.00
2019-04-03T09:27:42.450Z,5100.00
2019-04-03T09:28:42.880Z,5208.00
2019-04-03T09:29:44.586Z,5320.00
2019-04-03T09:30:43.509Z,5452.00
2019-04-03T09:31:42.432Z,5572.00
2019-04-03T09:32:42.418Z,5644.00
2019-04-03T09:33:42.729Z,5652.00
2019-04-03T09:34:42.499Z,5688.00
2019-04-03T09:35:43.329Z,5816.00
2019-04-03T09:36:43.417Z,5988.00
2019-04-03T09:37:45.209Z,6136.00
2019-04-03T09:38:42.676Z,6312.00
2019-04-03T09:39:44.443Z,6504.00
2019-04-03T09:40:43.415Z,6576.00
2019-04-03T09:41:42.401Z,6788.00
2019-04-03T09:42:42.398Z,7112.00
2019-04-03T09:43:42.389Z,7472.00
2019-04-03T09:44:42.387Z,7860.00
2019-04-03T09:45:42.615Z,8052.00
2019-04-03T09:46:44.722Z,8232.00
2019-04-03T09:47:42.357Z,8352.00
2019-04-03T09:48:42.415Z,8408.00
2019-04-03T09:49:44.086Z,8768.00
2019-04-03T09:50:45.710Z,9212.00
2019-04-03T09:51:42.793Z,9620.00
2019-04-03T09:52:48.124Z,9968.00
2019-04-03T09:53:44.397Z,10548.00
2019-04-03T09:54:42.310Z,10676.00
2019-04-03T09:55:42.330Z,10860.00
2019-04-03T09:56:57.191Z,11128.00
2019-04-03T09:57:44.446Z,11096.00
2019-04-03T09:58:42.294Z,11244.00
2019-04-03T09:59:42.278Z,11340.00
2019-04-03T10:00:42.900Z,11080.00
2019-04-03T10:01:42.265Z,10744.00
2019-04-03T10:02:42.261Z,10344.00
2019-04-03T10:03:42.486Z,10016.00
2019-04-03T10:04:42.246Z,9640.00
2019-04-03T10:05:42.273Z,9024.00
2019-04-03T10:06:42.245Z,8252.00
2019-04-03T10:07:42.239Z,7412.00
2019-04-03T10:08:42.595Z,6400.00
2019-04-03T10:09:44.002Z,5584.00
2019-04-03T10:10:43.235Z,4960.00
2019-04-03T10:11:42.266Z,4584.00
2019-04-03T10:12:44.727Z,4416.00
2019-04-03T10:13:44.195Z,4580.00
2019-04-03T10:14:42.192Z,5300.00
2019-04-03T10:15:42.565Z,5964.00
2019-04-03T10:16:42.171Z,6464.00
2019-04-03T10:17:42.151Z,6848.00
2019-04-03T10:18:42.458Z,7208.00
2019-04-03T10:19:45.541Z,7392.00
2019-04-03T10:20:43.154Z,7504.00
2019-04-03T10:21:42.131Z,7564.00
2019-04-03T10:22:42.119Z,7660.00
2019-04-03T10:23:42.257Z,7524.00
2019-04-03T10:24:42.094Z,7412.00
2019-04-03T10:25:42.096Z,7320.00
2019-04-03T10:26:42.094Z,6856.00
2019-04-03T10:27:43.582Z,6580.00
2019-04-03T10:28:43.544Z,6540.00
2019-04-03T10:29:42.278Z,6332.00
2019-04-03T10:30:42.057Z,5840.00
2019-04-03T10:31:42.057Z,5060.00
2019-04-03T10:32:42.041Z,4312.00
2019-04-03T10:33:43.062Z,3796.00
2019-04-03T10:34:42.012Z,3592.00
2019-04-03T10:35:42.018Z,3700.00
2019-04-03T10:36:43.547Z,4192.00
2019-04-03T10:37:41.995Z,4804.00
2019-04-03T10:38:42.834Z,5304.00
2019-04-03T10:39:44.232Z,5540.00
2019-04-03T10:40:42.984Z,5628.00
2019-04-03T10:41:41.992Z,5800.00
2019-04-03T10:42:41.987Z,5964.00
2019-04-03T10:43:42.158Z,6220.00
2019-04-03T10:44:42.268Z,6576.00
2019-04-03T10:45:41.960Z,6460.00
2019-04-03T10:46:42.224Z,6124.00
2019-04-03T10:47:44.025Z,5720.00
2019-04-03T10:48:42.939Z,5296.00
2019-04-03T10:49:41.931Z,4980.00
2019-04-03T10:50:44.778Z,4724.00
2019-04-03T10:51:42.132Z,4536.00
2019-04-03T10:52:44.040Z,4596.00
2019-04-03T10:53:43.147Z,4900.00
2019-04-03T10:54:41.903Z,5140.00
2019-04-03T10:55:41.890Z,5224.00
2019-04-03T10:56:41.986Z,5140.00
2019-04-03T10:57:41.909Z,5440.00
2019-04-03T10:58:43.158Z,5844.00
2019-04-03T10:59:42.875Z,5972.00
2019-04-03T11:00:41.870Z,5900.00
2019-04-03T11:01:42.143Z,5960.00
2019-04-03T11:02:42.018Z,5992.00
2019-04-03T11:03:41.849Z,6164.00
2019-04-03T11:04:41.829Z,6020.00
2019-04-03T11:05:42.834Z,5776.00
2019-04-03T11:06:41.837Z,5444.00
2019-04-03T11:07:41.827Z,4856.00
2019-04-03T11:08:42.012Z,4536.00
2019-04-03T11:09:41.800Z,4128.00
2019-04-03T11:10:42.064Z,3708.00
2019-04-03T11:11:43.508Z,3536.00
2019-04-03T11:12:42.790Z,3304.00
2019-04-03T11:13:41.773Z,3424.00
2019-04-03T11:14:41.766Z,4568.00
2019-04-03T11:15:43.601Z,5948.00
2019-04-03T11:16:45.939Z,6428.00
2019-04-03T11:17:42.137Z,6560.00
2019-04-03T11:18:41.725Z,6316.00
2019-04-03T11:19:44.189Z,6092.00
2019-04-03T11:20:42.715Z,6232.00
2019-04-03T11:21:43.827Z,6856.00
2019-04-03T11:22:43.522Z,7700.00
2019-04-03T11:23:44.800Z,8104.00
2019-04-03T11:24:43.130Z,7524.00
2019-04-03T11:25:42.260Z,6908.00
2019-04-03T11:26:41.836Z,6096.00
2019-04-03T11:27:44.601Z,5300.00
2019-04-03T11:28:42.691Z,4596.00
2019-04-03T11:29:42.792Z,4624.00
2019-04-03T11:30:41.934Z,4540.00
2019-04-03T11:31:42.808Z,4260.00
2019-04-03T11:32:42.703Z,3932.00
2019-04-03T11:33:44.580Z,3780.00
2019-04-03T11:34:41.626Z,3748.00
2019-04-03T11:35:41.620Z,3520.00
2019-04-03T11:36:41.782Z,3344.00
2019-04-03T11:37:41.616Z,3192.00
2019-04-03T11:38:41.617Z,2916.00
2019-04-03T11:39:41.582Z,2520.00
2019-04-03T11:40:41.818Z,2228.00
2019-04-03T11:41:41.578Z,2052.00
2019-04-03T11:42:41.572Z,1972.00
2019-04-03T11:43:41.901Z,1928.00
2019-04-03T11:44:41.549Z,1956.00
2019-04-03T11:45:41.799Z,2000.00
2019-04-03T11:46:41.530Z,2088.00
2019-04-03T11:47:41.522Z,2148.00
2019-04-03T11:48:43.359Z,2156.00
2019-04-03T11:49:42.541Z,2160.00
2019-04-03T11:50:41.514Z,2148.00
2019-04-03T11:51:41.746Z,2064.00
2019-04-03T11:52:41.488Z,2044.00
2019-04-03T11:53:41.502Z,2048.00
2019-04-03T11:54:41.489Z,2044.00
2019-04-03T11:55:41.962Z,2072.00
2019-04-03T11:56:44.904Z,2164.00
2019-04-03T11:57:41.463Z,2360.00
2019-04-03T11:58:41.464Z,2656.00
2019-04-03T11:59:41.456Z,2860.00
2019-04-03T12:00:41.437Z,3028.00
2019-04-03T12:01:41.422Z,3340.00
2019-04-03T12:02:43.986Z,3660.00
2019-04-03T12:03:42.924Z,4068.00
2019-04-03T12:04:43.140Z,4704.00
2019-04-03T12:05:42.598Z,5420.00
2019-04-03T12:06:41.385Z,6152.00
2019-04-03T12:07:41.396Z,7484.00
2019-04-03T12:08:43.337Z,8380.00
2019-04-03T12:09:41.636Z,8656.00
2019-04-03T12:10:41.708Z,9212.00
2019-04-03T12:11:41.373Z,9552.00
2019-04-03T12:12:42.076Z,9540.00
2019-04-03T12:13:44.404Z,9420.00
2019-04-03T12:14:41.371Z,9868.00
2019-04-03T12:15:41.363Z,10944.00
2019-04-03T12:16:41.517Z,11248.00
2019-04-03T12:17:41.350Z,11156.00
2019-04-03T12:18:41.709Z,10260.00
2019-04-03T12:19:41.350Z,10380.00
2019-04-03T12:20:44.730Z,9644.00
2019-04-03T12:21:42.356Z,9380.00
2019-04-03T12:22:41.335Z,9364.00
2019-04-03T12:23:41.325Z,9420.00
2019-04-03T12:24:41.641Z,8892.00
2019-04-03T12:25:41.468Z,8452.00
2019-04-03T12:26:43.222Z,8224.00
2019-04-03T12:27:41.509Z,8264.00
2019-04-03T12:28:41.829Z,8536.00
2019-04-03T12:29:41.292Z,8744.00
2019-04-03T12:30:41.607Z,8464.00
2019-04-03T12:31:41.467Z,8080.00
2019-04-03T12:32:45.354Z,8624.00
2019-04-03T12:33:54.293Z,8772.00
2019-04-03T12:34:43.300Z,9444.00
2019-04-03T12:35:42.754Z,9860.00